Airfield :
LOGIN :

Register | Disclaimer

   EN    FR    IT 

 










Legend :    VFR   Marginal VFR   IFR   Intensive IFR   Very Intensive IFR
Visi :
Ceiling :
>= 8 km
>= 3000ft
5 to 8 km
1000 to 3000 ft
1500m to 5 km
500 to 1000 ft
800 to 1500m
200 to 500 ft
< 800m
< 200 ft
Symbols :   Thunderstorms  Fog  Heavy snow  Heavy precipitations  Wind > 20 kt
SIGMETs :     Misc.  Thunderstorms  Icing  Turbulence  Mountain Waves  Volcanic Ashes







- Airport Elevation : 844 ft
- IATA code : OSR


LKMT - Ostrava-Mosnov

CURRENT METAR :
  • 170900Z 24010KT CAVOK 17/13 Q1026 NOSIG

EXPIRED METARs :
  • 170830Z 23009KT CAVOK 16/13 Q1026 NOSIG
  • 170800Z 22009KT CAVOK 14/12 Q1026 NOSIG
  • 170730Z 22008KT CAVOK 13/12 Q1026 NOSIG
  • 170700Z 22005KT CAVOK 11/10 Q1026 NOSIG

TAF TAF LKMT
Valid from the 17 at 06:00 until the 18 at 12:00 UTC


170500Z 1706/1812 21006KT 3500 BR NSC
BECMG 1707/1709 23012KT CAVOK
BECMG 1716/1718 19006KT
TEMPO 1803/1807 5000 BR NSC
No reported NOTAMs for that airfield.



MET'MAP, your aeronautical weather chart ! - Copyright ORBIFLY December 2007 - Disclaimer

ORBIFLY MET'MAP TEAM :

Programming & Development : Alexandra Zaïnal
Concept & Development : Baudouin d'Aumeries
Co-Development & Prog : Marc-Olivier Méhu
Technical & hardware support : Manuel Goepfert

Contact : metmap@orbifly.com




SOURCES & CREDITS :

   NOAA